createdAt,value
2023-10-26T00:00:18.527Z,9.00
2023-10-26T00:05:21.258Z,9.10
2023-10-26T00:10:25.251Z,9.20
2023-10-26T00:15:27.829Z,9.10
2023-10-26T00:20:30.465Z,9.10
2023-10-26T00:25:34.326Z,9.10
2023-10-26T00:30:39.007Z,9.10
2023-10-26T00:35:41.501Z,8.90
2023-10-26T00:40:48.161Z,8.70
2023-10-26T00:45:53.007Z,8.50
2023-10-26T00:50:55.664Z,8.50
2023-10-26T00:56:00.012Z,8.70
2023-10-26T01:01:04.581Z,8.70
2023-10-26T01:06:07.432Z,8.50
2023-10-26T01:11:11.644Z,8.30
2023-10-26T01:16:15.635Z,8.60
2023-10-26T01:21:18.426Z,8.80
2023-10-26T01:26:22.585Z,8.40
2023-10-26T01:31:25.193Z,8.50
2023-10-26T01:36:27.892Z,8.70
2023-10-26T01:41:34.161Z,8.70
2023-10-26T01:46:36.765Z,8.80
2023-10-26T01:51:39.433Z,8.90
2023-10-26T01:56:43.745Z,9.00
2023-10-26T02:01:46.253Z,9.10
2023-10-26T02:06:48.952Z,9.10
2023-10-26T02:11:52.987Z,9.20
2023-10-26T02:16:55.493Z,9.20
2023-10-26T02:21:58.102Z,9.20
2023-10-26T02:27:02.367Z,9.20
2023-10-26T02:32:06.141Z,9.20
2023-10-26T02:37:08.695Z,9.20
2023-10-26T02:42:12.798Z,9.30
2023-10-26T02:47:15.337Z,9.10
2023-10-26T02:52:17.932Z,9.20
2023-10-26T02:57:22.029Z,9.00
2023-10-26T03:02:24.782Z,8.80
2023-10-26T03:07:28.888Z,8.70
2023-10-26T03:12:33.127Z,8.50
2023-10-26T03:17:36.007Z,8.40
2023-10-26T03:22:38.836Z,8.70
2023-10-26T03:27:44.189Z,8.80
2023-10-26T03:32:46.785Z,8.90
2023-10-26T03:37:49.471Z,8.90
2023-10-26T03:42:53.504Z,8.90
2023-10-26T03:47:56.271Z,9.00
2023-10-26T03:52:59.404Z,8.50
2023-10-26T03:58:03.431Z,8.70
2023-10-26T04:03:06.292Z,8.60
2023-10-26T04:08:09.124Z,8.70
2023-10-26T04:13:13.127Z,8.50
2023-10-26T04:18:15.769Z,8.30
2023-10-26T04:23:19.235Z,8.40
2023-10-26T04:28:23.895Z,8.30
2023-10-26T04:33:26.504Z,8.10
2023-10-26T04:38:29.089Z,8.20
2023-10-26T04:43:33.633Z,8.30
2023-10-26T04:48:36.302Z,8.60
2023-10-26T04:53:38.828Z,8.70
2023-10-26T04:58:42.745Z,8.60
2023-10-26T05:03:45.349Z,8.30
2023-10-26T05:08:48.020Z,8.20
2023-10-26T05:13:53.829Z,8.10
2023-10-26T05:18:56.388Z,8.00
2023-10-26T05:23:59.047Z,8.00
2023-10-26T05:29:11.696Z,7.90
2023-10-26T05:34:14.349Z,7.90
2023-10-26T05:39:16.919Z,8.10
2023-10-26T05:44:21.780Z,8.10
2023-10-26T05:49:25.073Z,8.00
2023-10-26T05:54:34.847Z,8.20
2023-10-26T05:59:39.677Z,8.20
2023-10-26T06:11:24.074Z,7.90
2023-10-26T06:16:29.407Z,7.90
2023-10-26T06:21:42.083Z,8.20
2023-10-26T06:26:46.314Z,8.20
2023-10-26T06:31:53.952Z,8.40
2023-10-26T06:37:06.756Z,8.70
2023-10-26T06:42:18.604Z,8.80
2023-10-26T06:47:36.132Z,9.00
2023-10-26T06:52:53.359Z,8.70
2023-10-26T06:58:06.746Z,8.20
2023-10-26T07:03:15.722Z,8.10
2023-10-26T07:08:27.855Z,8.20
2023-10-26T07:13:31.874Z,8.20
2023-10-26T07:18:46.807Z,8.30
2023-10-26T07:23:56.983Z,8.40
2023-10-26T07:29:44.039Z,8.70
2023-10-26T07:35:00.896Z,8.40
2023-10-26T07:40:25.619Z,8.00
2023-10-26T07:45:40.003Z,8.00
2023-10-26T07:50:48.133Z,8.20
2023-10-26T07:55:53.120Z,8.20
2023-10-26T08:01:00.852Z,8.40
2023-10-26T08:06:09.418Z,8.40
2023-10-26T08:11:15.612Z,8.50
2023-10-26T08:16:43.001Z,8.20
2023-10-26T08:21:59.488Z,8.20
2023-10-26T08:27:24.722Z,8.30
2023-10-26T08:32:56.017Z,8.70
2023-10-26T08:38:07.751Z,8.80
2023-10-26T08:43:12.083Z,8.70
2023-10-26T08:48:18.801Z,8.80
2023-10-26T08:53:27.081Z,8.30
2023-10-26T08:58:36.940Z,8.70
2023-10-26T09:03:43.115Z,9.10
2023-10-26T09:09:03.741Z,8.90
2023-10-26T09:14:25.424Z,9.20
2023-10-26T09:19:43.480Z,9.10
2023-10-26T09:25:49.804Z,8.90
2023-10-26T09:37:07.230Z,8.60
2023-10-26T09:42:14.870Z,8.70
2023-10-26T09:47:27.689Z,8.60
2023-10-26T09:52:41.898Z,8.50
2023-10-26T09:58:03.120Z,8.70
2023-10-26T10:03:20.393Z,9.20
2023-10-26T10:09:06.145Z,9.00
2023-10-26T10:15:15.738Z,8.90
2023-10-26T10:21:01.805Z,9.20
2023-10-26T10:27:08.501Z,9.10
2023-10-26T10:39:22.856Z,8.80
2023-10-26T10:44:37.776Z,8.70
2023-10-26T10:49:46.062Z,9.00
2023-10-26T10:54:59.927Z,8.90
2023-10-26T11:00:25.815Z,8.80
2023-10-26T11:05:41.699Z,8.60
2023-10-26T11:11:06.013Z,8.70
2023-10-26T11:16:35.005Z,8.60
2023-10-26T11:21:52.271Z,8.60
2023-10-26T11:27:28.454Z,8.80
2023-10-26T11:32:38.483Z,9.10
2023-10-26T11:38:06.684Z,9.30
2023-10-26T11:43:11.166Z,9.20
2023-10-26T11:48:26.803Z,9.30
2023-10-26T11:53:36.961Z,9.20
2023-10-26T12:03:51.185Z,8.90
2023-10-26T12:08:56.892Z,8.60
2023-10-26T12:14:09.080Z,8.80
2023-10-26T12:19:48.429Z,9.00
2023-10-26T12:25:03.244Z,8.90
2023-10-26T12:30:12.252Z,8.70
2023-10-26T12:35:16.375Z,9.00
2023-10-26T12:40:25.983Z,8.70
2023-10-26T12:45:31.840Z,8.60
2023-10-26T12:50:35.934Z,8.60
2023-10-26T12:55:42.750Z,8.50
2023-10-26T13:01:31.724Z,8.70
2023-10-26T13:06:56.945Z,8.80
2023-10-26T13:17:36.343Z,8.70
2023-10-26T13:22:40.447Z,8.80
2023-10-26T13:27:49.376Z,8.70
2023-10-26T13:32:55.753Z,8.90
2023-10-26T13:38:02.932Z,9.10
2023-10-26T13:43:22.188Z,9.00
2023-10-26T13:48:28.683Z,9.00
2023-10-26T13:53:33.499Z,9.00
2023-10-26T13:58:41.072Z,9.00
2023-10-26T14:03:44.362Z,9.20
2023-10-26T14:09:04.753Z,9.00
2023-10-26T14:14:11.540Z,9.10
2023-10-26T14:19:15.990Z,9.00
2023-10-26T14:24:22.850Z,8.90
2023-10-26T14:29:31.065Z,8.90
2023-10-26T14:34:39.809Z,8.80
2023-10-26T14:39:44.801Z,8.90
2023-10-26T14:44:50.086Z,8.70
2023-10-26T14:49:54.135Z,8.70
2023-10-26T14:54:58.157Z,8.60
2023-10-26T15:00:06.427Z,8.40
2023-10-26T15:05:11.678Z,8.60
2023-10-26T15:10:26.509Z,8.80
2023-10-26T15:15:34.547Z,8.70
2023-10-26T15:20:38.318Z,8.60
2023-10-26T15:25:41.588Z,8.40
2023-10-26T15:30:47.335Z,8.50
2023-10-26T15:35:51.537Z,8.50
2023-10-26T15:41:03.095Z,8.60
2023-10-26T15:46:08.115Z,8.50
2023-10-26T15:51:11.938Z,8.50
2023-10-26T15:56:20.205Z,8.60
2023-10-26T16:01:26.478Z,8.50
2023-10-26T16:06:37.809Z,8.50
2023-10-26T16:11:45.236Z,8.40
2023-10-26T16:16:52.775Z,8.30
2023-10-26T16:21:56.992Z,8.30
2023-10-26T16:27:03.894Z,8.30
2023-10-26T16:32:08.917Z,8.20
2023-10-26T16:37:15.937Z,8.20
2023-10-26T16:42:22.440Z,8.30
2023-10-26T16:47:33.256Z,8.20
2023-10-26T16:52:45.916Z,8.30
2023-10-26T16:57:51.703Z,8.10
2023-10-26T17:02:57.390Z,8.30
2023-10-26T17:08:06.019Z,8.40
2023-10-26T17:13:10.247Z,8.50
2023-10-26T17:18:15.570Z,8.50
2023-10-26T17:23:19.896Z,8.60
2023-10-26T17:28:23.879Z,8.50
2023-10-26T17:33:29.800Z,8.40
2023-10-26T17:38:35.407Z,8.30
2023-10-26T17:43:39.223Z,8.50
2023-10-26T17:48:44.329Z,8.60
2023-10-26T17:53:52.508Z,8.50
2023-10-26T17:58:57.667Z,8.50
2023-10-26T18:04:05.481Z,8.40
2023-10-26T18:09:10.234Z,8.50
2023-10-26T18:14:13.937Z,8.70
2023-10-26T18:19:20.104Z,8.50
2023-10-26T18:24:23.394Z,8.50
2023-10-26T18:29:26.531Z,8.50
2023-10-26T18:34:31.008Z,8.40
2023-10-26T18:39:34.042Z,8.40
2023-10-26T18:44:37.160Z,8.40
2023-10-26T18:49:41.598Z,8.20
2023-10-26T18:54:44.981Z,8.20
2023-10-26T18:59:48.128Z,8.20
2023-10-26T19:04:52.653Z,8.40
2023-10-26T19:09:55.843Z,8.20
2023-10-26T19:14:58.804Z,8.30
2023-10-26T19:20:03.338Z,8.10
2023-10-26T19:25:07.871Z,8.30
2023-10-26T19:30:12.176Z,8.20
2023-10-26T19:35:17.115Z,8.30
2023-10-26T19:40:19.994Z,8.20
2023-10-26T19:45:23.054Z,8.10
2023-10-26T19:50:29.247Z,8.00
2023-10-26T19:55:34.299Z,8.00
2023-10-26T20:00:37.188Z,8.00
2023-10-26T20:05:41.652Z,8.10
2023-10-26T20:10:44.775Z,8.20
2023-10-26T20:15:47.945Z,8.40
2023-10-26T20:20:52.650Z,8.20
2023-10-26T20:25:55.624Z,8.20
2023-10-26T20:30:58.700Z,8.00
2023-10-26T20:36:03.481Z,8.20
2023-10-26T20:41:08.060Z,8.20
2023-10-26T20:46:11.827Z,8.20
2023-10-26T20:51:16.315Z,8.30
2023-10-26T20:56:19.451Z,8.10
2023-10-26T21:01:22.598Z,7.90
2023-10-26T21:06:27.040Z,7.90
2023-10-26T21:11:30.224Z,7.70
2023-10-26T21:16:33.416Z,7.70
2023-10-26T21:21:37.858Z,7.80
2023-10-26T21:26:40.861Z,7.80
2023-10-26T21:31:43.869Z,7.90
2023-10-26T21:36:49.027Z,7.90
2023-10-26T21:41:52.316Z,8.10
2023-10-26T21:46:55.107Z,8.10
2023-10-26T21:51:59.397Z,8.20
2023-10-26T21:57:02.027Z,8.20
2023-10-26T22:02:05.309Z,8.00
2023-10-26T22:07:09.473Z,8.00
2023-10-26T22:12:12.225Z,8.10
2023-10-26T22:17:15.229Z,8.00
2023-10-26T22:22:20.414Z,8.10
2023-10-26T22:27:23.232Z,7.80
2023-10-26T22:32:26.418Z,7.80
2023-10-26T22:37:30.855Z,7.70
2023-10-26T22:42:34.030Z,7.60
2023-10-26T22:47:36.960Z,7.70
2023-10-26T22:52:41.225Z,7.70
2023-10-26T22:57:44.323Z,7.60
2023-10-26T23:09:40.507Z,7.60
2023-10-26T23:14:43.500Z,7.40
2023-10-26T23:19:46.728Z,7.40
2023-10-26T23:24:51.301Z,7.40
2023-10-26T23:29:54.629Z,7.40
2023-10-26T23:34:57.741Z,7.40
2023-10-26T23:40:03.563Z,7.50
2023-10-26T23:45:07.536Z,7.50
2023-10-26T23:50:11.284Z,7.60
2023-10-26T23:55:15.801Z,7.50
